Time;durP1;ratioP1;P1;durP2;ratioP2;P2;SDS_P1;SDS_P2;PMS_P1;PMS_P2;Temp;Humidity;BMP_temperature;BMP_pressure;BME280_temperature;BME280_humidity;BME280_pressure;Samples;Min_cycle;Max_cycle;Signal;HPM_P1;HPM_P2
2023/07/25 00:01:59;;;;;;;;;;;11.90;99.90;;;;;;5114280;28;19907;-64
2023/07/25 00:04:26;;;;;;;;;;;12.00;99.90;;;;;;5115517;28;19912;-66
2023/07/25 00:06:52;;;;;;;;;;;12.00;99.90;;;;;;5115517;28;19911;-62
2023/07/25 00:09:19;;;;;;;;;;;12.20;99.90;;;;;;5115311;28;19930;-64
2023/07/25 00:11:46;;;;;;;;;;;12.30;99.90;;;;;;5110446;28;19933;-63
2023/07/25 00:14:13;;;;;;;;;;;12.40;99.90;;;;;;5114320;28;19923;-66
2023/07/25 00:16:39;;;;;;;;;;;12.50;99.90;;;;;;5104718;28;19907;-66
2023/07/25 00:19:06;;;;;;;;;;;12.70;99.90;;;;;;5096240;28;19912;-63
2023/07/25 00:21:33;;;;;;;;;;;12.80;99.90;;;;;;5105736;28;19908;-62
2023/07/25 00:23:59;;;;;;;;;;;12.90;99.90;;;;;;5114622;28;19907;-64
2023/07/25 00:26:26;;;;;;;;;;;13.00;99.90;;;;;;5114878;28;20068;-63
2023/07/25 00:28:52;;;;;;;;;;;13.10;99.90;;;;;;5109055;28;19908;-64
2023/07/25 00:31:19;;;;;;;;;;;13.20;99.90;;;;;;5105989;28;20000;-64
2023/07/25 00:33:46;;;;;;;;;;;13.30;99.90;;;;;;5114375;28;20334;-65
2023/07/25 00:36:12;;;;;;;;;;;13.50;99.90;;;;;;5102895;28;19915;-66
2023/07/25 00:38:39;;;;;;;;;;;13.60;99.90;;;;;;5095965;28;19919;-65
2023/07/25 00:41:06;;;;;;;;;;;13.60;99.90;;;;;;5105070;28;19908;-65
2023/07/25 00:43:32;;;;;;;;;;;13.70;99.90;;;;;;5102237;28;19927;-66
2023/07/25 00:45:59;;;;;;;;;;;13.80;99.90;;;;;;5114608;28;19915;-64
2023/07/25 00:48:26;;;;;;;;;;;13.90;99.90;;;;;;5114157;28;20352;-65
2023/07/25 00:50:52;;;;;;;;;;;13.90;99.90;;;;;;5087831;28;20003;-65
2023/07/25 00:53:19;;;;;;;;;;;14.00;99.90;;;;;;5093783;28;19916;-63
2023/07/25 00:55:47;;;;;;;;;;;14.10;99.90;;;;;;5094095;28;19912;-67
2023/07/25 00:58:13;;;;;;;;;;;14.20;99.90;;;;;;5093825;28;20317;-63
2023/07/25 01:00:40;;;;;;;;;;;14.30;99.90;;;;;;5097701;27;19916;-62
2023/07/25 01:03:07;;;;;;;;;;;14.50;99.90;;;;;;5107259;28;20010;-65
2023/07/25 01:05:35;;;;;;;;;;;14.60;99.90;;;;;;5102798;28;20403;-65
2023/07/25 01:08:02;;;;;;;;;;;14.70;99.90;;;;;;5113938;28;19908;-65
2023/07/25 01:10:29;;;;;;;;;;;14.80;99.90;;;;;;5108798;28;19923;-64
2023/07/25 01:12:55;;;;;;;;;;;14.80;99.90;;;;;;5106259;28;19912;-64
2023/07/25 01:15:22;;;;;;;;;;;15.00;99.90;;;;;;5111673;28;19916;-65
2023/07/25 01:17:49;;;;;;;;;;;15.10;99.90;;;;;;5113404;28;19908;-65
2023/07/25 01:20:15;;;;;;;;;;;15.20;99.90;;;;;;5112871;28;19912;-64
2023/07/25 01:22:43;;;;;;;;;;;15.30;99.90;;;;;;5113306;28;19954;-64
2023/07/25 01:25:10;;;;;;;;;;;15.50;99.90;;;;;;5111874;28;19916;-64
2023/07/25 01:27:36;;;;;;;;;;;15.60;99.90;;;;;;5113040;28;19908;-64
2023/07/25 01:30:03;;;;;;;;;;;15.90;99.90;;;;;;5111876;28;20380;-64
2023/07/25 01:32:30;;;;;;;;;;;16.00;99.90;;;;;;5075007;28;19915;-68
2023/07/25 01:34:57;;;;;;;;;;;16.20;99.90;;;;;;5094322;28;19916;-63
2023/07/25 01:37:23;;;;;;;;;;;16.30;99.90;;;;;;5113062;28;19912;-66
2023/07/25 01:39:50;;;;;;;;;;;16.40;99.90;;;;;;5113503;28;20010;-65
2023/07/25 01:42:17;;;;;;;;;;;16.60;99.90;;;;;;5093713;28;19964;-64
2023/07/25 01:44:43;;;;;;;;;;;16.60;99.90;;;;;;5108649;28;19924;-65
2023/07/25 01:47:10;;;;;;;;;;;16.80;99.90;;;;;;5095170;28;19964;-66
2023/07/25 01:49:37;;;;;;;;;;;16.80;99.90;;;;;;5113430;28;19914;-64
2023/07/25 01:52:03;;;;;;;;;;;16.90;99.90;;;;;;5105802;28;19911;-63
2023/07/25 01:54:30;;;;;;;;;;;17.00;99.90;;;;;;5113038;28;19916;-64
2023/07/25 01:56:57;;;;;;;;;;;17.00;99.90;;;;;;5113084;28;19970;-64
2023/07/25 01:59:23;;;;;;;;;;;17.10;99.90;;;;;;5112775;28;19988;-68
2023/07/25 02:01:50;;;;;;;;;;;17.20;99.90;;;;;;5111373;28;19996;-67
2023/07/25 02:04:16;;;;;;;;;;;17.40;99.90;;;;;;5112691;28;20371;-64
2023/07/25 02:06:43;;;;;;;;;;;17.50;99.90;;;;;;5113050;28;19918;-62
2023/07/25 02:09:10;;;;;;;;;;;17.60;99.90;;;;;;5112587;28;19908;-64
2023/07/25 02:11:36;;;;;;;;;;;17.70;99.90;;;;;;5104823;28;20057;-65
2023/07/25 02:14:03;;;;;;;;;;;17.70;99.90;;;;;;5092567;28;19916;-64
2023/07/25 02:16:30;;;;;;;;;;;17.80;99.90;;;;;;5092336;28;19908;-64
2023/07/25 02:18:56;;;;;;;;;;;18.00;99.90;;;;;;5104431;28;19908;-65
2023/07/25 02:21:23;;;;;;;;;;;18.10;99.90;;;;;;5112278;28;20308;-65
2023/07/25 02:23:50;;;;;;;;;;;17.90;99.90;;;;;;5111887;28;19961;-65
2023/07/25 02:26:16;;;;;;;;;;;17.90;99.90;;;;;;5112549;28;19953;-63
2023/07/25 02:28:43;;;;;;;;;;;17.80;99.90;;;;;;5112362;28;19912;-64
2023/07/25 02:31:09;;;;;;;;;;;17.70;99.90;;;;;;5103219;28;20277;-65
2023/07/25 02:33:36;;;;;;;;;;;17.60;99.90;;;;;;5105434;28;19919;-66
2023/07/25 02:36:03;;;;;;;;;;;17.60;99.90;;;;;;5112370;28;20020;-65
2023/07/25 02:38:29;;;;;;;;;;;17.60;99.90;;;;;;5112176;28;19908;-66
2023/07/25 02:40:56;;;;;;;;;;;17.70;99.90;;;;;;5111840;28;19908;-65
2023/07/25 02:43:23;;;;;;;;;;;17.70;99.90;;;;;;5112044;28;19927;-66
2023/07/25 02:45:52;;;;;;;;;;;17.70;99.90;;;;;;5112635;28;19911;-65
2023/07/25 02:48:19;;;;;;;;;;;17.80;99.90;;;;;;5112682;28;19960;-66
2023/07/25 02:50:45;;;;;;;;;;;18.00;99.90;;;;;;5105261;28;19908;-66
2023/07/25 02:53:12;;;;;;;;;;;18.00;99.90;;;;;;5097075;28;19923;-66
2023/07/25 02:55:39;;;;;;;;;;;18.30;99.90;;;;;;5112496;28;20364;-65
2023/07/25 02:58:05;;;;;;;;;;;18.70;99.90;;;;;;5111552;28;19914;-67
2023/07/25 03:00:32;;;;;;;;;;;19.20;99.90;;;;;;5101706;28;19912;-65
2023/07/25 03:02:59;;;;;;;;;;;19.70;99.90;;;;;;5111797;28;19973;-65
2023/07/25 03:05:27;;;;;;;;;;;19.70;99.90;;;;;;5101372;28;19920;-65
2023/07/25 03:07:55;;;;;;;;;;;19.80;99.90;;;;;;5105376;28;19912;-66
2023/07/25 03:10:22;;;;;;;;;;;19.90;99.90;;;;;;5109146;28;19994;-67
2023/07/25 03:12:48;;;;;;;;;;;19.90;99.90;;;;;;5112120;28;19915;-66
2023/07/25 03:15:15;;;;;;;;;;;20.10;99.90;;;;;;5111002;28;19916;-63
2023/07/25 03:17:42;;;;;;;;;;;21.40;99.90;;;;;;5111792;28;20435;-66
2023/07/25 03:20:08;;;;;;;;;;;22.70;98.60;;;;;;5111007;28;20006;-66
2023/07/25 03:22:35;;;;;;;;;;;23.70;96.60;;;;;;5112025;28;19916;-65
2023/07/25 03:25:02;;;;;;;;;;;23.70;95.60;;;;;;5111117;28;20326;-68
2023/07/25 03:27:28;;;;;;;;;;;23.30;96.00;;;;;;5111180;28;20297;-64
2023/07/25 03:29:55;;;;;;;;;;;23.00;95.80;;;;;;5111936;28;19907;-68
2023/07/25 03:32:22;;;;;;;;;;;22.80;96.00;;;;;;5108450;28;19908;-64
2023/07/25 03:34:48;;;;;;;;;;;22.80;95.40;;;;;;5111353;28;19972;-66
2023/07/25 03:37:15;;;;;;;;;;;22.70;95.90;;;;;;5111694;28;20376;-66
2023/07/25 03:39:42;;;;;;;;;;;22.90;96.20;;;;;;5110257;28;19908;-65
2023/07/25 03:42:08;;;;;;;;;;;23.30;95.60;;;;;;5111108;28;20356;-66
2023/07/25 03:44:35;;;;;;;;;;;23.80;95.10;;;;;;5111195;28;19926;-65
2023/07/25 03:47:01;;;;;;;;;;;24.30;94.00;;;;;;5107894;28;20407;-65
2023/07/25 03:49:28;;;;;;;;;;;23.60;94.30;;;;;;5107767;28;20054;-65
2023/07/25 03:51:54;;;;;;;;;;;22.70;94.90;;;;;;5110617;28;20059;-64
2023/07/25 03:54:23;;;;;;;;;;;21.90;95.80;;;;;;5114640;28;19964;-63
2023/07/25 03:56:50;;;;;;;;;;;21.10;97.10;;;;;;5115067;28;19908;-65
2023/07/25 03:59:18;;;;;;;;;;;20.80;98.80;;;;;;5114851;28;19908;-66
2023/07/25 04:01:44;;;;;;;;;;;21.70;98.00;;;;;;5101133;28;20249;-65
2023/07/25 04:04:11;;;;;;;;;;;23.40;96.40;;;;;;5115033;28;19916;-65
2023/07/25 04:06:38;;;;;;;;;;;25.50;93.10;;;;;;5114864;28;19978;-66
2023/07/25 04:09:05;;;;;;;;;;;27.30;91.40;;;;;;5111795;28;19947;-66
2023/07/25 04:11:32;;;;;;;;;;;29.10;85.80;;;;;;5104986;28;19909;-67
2023/07/25 04:13:58;;;;;;;;;;;29.90;82.70;;;;;;5094804;28;19946;-67
2023/07/25 04:16:25;;;;;;;;;;;30.80;78.50;;;;;;5105075;28;19908;-66
2023/07/25 04:18:51;;;;;;;;;;;31.10;75.70;;;;;;5115267;28;19907;-66
2023/07/25 04:21:18;;;;;;;;;;;30.70;76.50;;;;;;5094590;28;19912;-65
2023/07/25 04:23:45;;;;;;;;;;;30.70;74.80;;;;;;5105797;28;19974;-65
2023/07/25 04:26:11;;;;;;;;;;;29.80;76.40;;;;;;5093789;28;19912;-68
2023/07/25 04:28:38;;;;;;;;;;;28.00;79.40;;;;;;5076537;28;19908;-65
2023/07/25 04:31:04;;;;;;;;;;;26.40;83.10;;;;;;5095067;28;20284;-63
2023/07/25 04:33:31;;;;;;;;;;;24.90;87.30;;;;;;5113873;28;19916;-65
2023/07/25 04:35:58;;;;;;;;;;;23.90;90.10;;;;;;5104952;28;19912;-66
2023/07/25 04:38:24;;;;;;;;;;;23.10;91.80;;;;;;5114376;28;19908;-65
2023/07/25 04:40:51;;;;;;;;;;;22.50;92.50;;;;;;5112775;28;19919;-66
2023/07/25 04:43:17;;;;;;;;;;;22.10;93.10;;;;;;5114815;28;20060;-65
2023/07/25 04:45:44;;;;;;;;;;;21.80;93.80;;;;;;5114921;28;20007;-64
2023/07/25 04:48:11;;;;;;;;;;;21.40;94.60;;;;;;5104482;28;19923;-66
2023/07/25 04:50:37;;;;;;;;;;;21.10;95.40;;;;;;5103338;28;19912;-66
2023/07/25 04:53:04;;;;;;;;;;;20.90;95.80;;;;;;5096606;28;19919;-66
2023/07/25 04:55:30;;;;;;;;;;;20.60;96.30;;;;;;5109448;28;19912;-68
2023/07/25 04:57:57;;;;;;;;;;;20.40;97.00;;;;;;5110730;28;19908;-64
2023/07/25 05:00:24;;;;;;;;;;;20.20;97.20;;;;;;5110286;28;19993;-67
2023/07/25 05:02:50;;;;;;;;;;;19.90;97.40;;;;;;5108603;28;20380;-64
2023/07/25 05:05:17;;;;;;;;;;;19.70;98.20;;;;;;5108202;28;19907;-64
2023/07/25 05:07:44;;;;;;;;;;;19.70;98.60;;;;;;5107912;28;19920;-65
2023/07/25 05:10:10;;;;;;;;;;;19.50;98.80;;;;;;5112512;28;20350;-65
2023/07/25 05:12:37;;;;;;;;;;;19.30;99.00;;;;;;5110978;28;19994;-68
2023/07/25 05:15:04;;;;;;;;;;;19.30;99.40;;;;;;5108597;28;20300;-64
2023/07/25 05:17:31;;;;;;;;;;;19.30;99.60;;;;;;5109708;28;19912;-67
2023/07/25 05:19:57;;;;;;;;;;;19.20;99.50;;;;;;5106557;28;19934;-66
2023/07/25 05:22:24;;;;;;;;;;;19.10;99.10;;;;;;5111115;28;19919;-67
2023/07/25 05:24:50;;;;;;;;;;;19.00;99.40;;;;;;5111609;28;19922;-67
2023/07/25 05:27:17;;;;;;;;;;;19.00;99.50;;;;;;5110419;28;19915;-68
2023/07/25 05:29:44;;;;;;;;;;;19.00;99.70;;;;;;5111508;28;19981;-66
2023/07/25 05:32:10;;;;;;;;;;;19.00;99.90;;;;;;5111737;28;19915;-65
2023/07/25 05:34:37;;;;;;;;;;;19.00;99.90;;;;;;5111752;28;20275;-66
2023/07/25 05:37:04;;;;;;;;;;;19.10;99.90;;;;;;5112177;28;19915;-66
2023/07/25 05:39:30;;;;;;;;;;;19.30;99.90;;;;;;5112561;28;19932;-69
2023/07/25 05:41:57;;;;;;;;;;;19.50;99.90;;;;;;5108580;28;19912;-65
2023/07/25 05:44:24;;;;;;;;;;;19.70;99.90;;;;;;5108003;28;19920;-66
2023/07/25 05:46:50;;;;;;;;;;;20.10;99.90;;;;;;5111522;28;19915;-63
2023/07/25 05:49:17;;;;;;;;;;;20.20;99.80;;;;;;5110932;28;19908;-65
2023/07/25 05:51:43;;;;;;;;;;;20.40;99.00;;;;;;5110701;28;19931;-67
2023/07/25 05:54:10;;;;;;;;;;;20.50;98.30;;;;;;5106219;28;20292;-65
2023/07/25 05:56:37;;;;;;;;;;;20.40;98.50;;;;;;5112829;28;19912;-64
2023/07/25 05:59:03;;;;;;;;;;;20.50;98.60;;;;;;5108565;28;19912;-65
2023/07/25 06:01:30;;;;;;;;;;;20.60;98.70;;;;;;5102643;28;20590;-65
2023/07/25 06:03:56;;;;;;;;;;;20.90;98.50;;;;;;5096505;28;19915;-65
2023/07/25 06:06:23;;;;;;;;;;;21.20;98.10;;;;;;5107802;28;20284;-64
2023/07/25 06:08:50;;;;;;;;;;;21.70;97.50;;;;;;5091351;28;19993;-64
2023/07/25 06:11:21;;;;;;;;;;;22.30;96.10;;;;;;5108871;27;19912;-66
2023/07/25 06:13:49;;;;;;;;;;;22.30;95.90;;;;;;5091516;28;19942;-66
2023/07/25 06:16:16;;;;;;;;;;;22.20;95.90;;;;;;5097377;28;19919;-66
2023/07/25 06:18:43;;;;;;;;;;;22.40;96.40;;;;;;5091416;28;19939;-66
2023/07/25 06:21:09;;;;;;;;;;;22.90;95.90;;;;;;5101849;28;20364;-68
2023/07/25 06:23:36;;;;;;;;;;;23.30;94.90;;;;;;5105024;28;20372;-68
2023/07/25 06:26:03;;;;;;;;;;;23.40;94.20;;;;;;5094001;28;20284;-66
2023/07/25 06:28:29;;;;;;;;;;;23.30;94.30;;;;;;5106322;28;20505;-67
2023/07/25 06:30:56;;;;;;;;;;;22.80;94.40;;;;;;5106972;28;19920;-66
2023/07/25 06:33:22;;;;;;;;;;;22.20;94.80;;;;;;5104391;28;20005;-66
2023/07/25 06:35:49;;;;;;;;;;;21.50;95.60;;;;;;5074303;28;20296;-67
2023/07/25 06:38:16;;;;;;;;;;;20.90;96.40;;;;;;5072698;28;19927;-65
2023/07/25 06:40:42;;;;;;;;;;;20.30;97.10;;;;;;5091961;28;19916;-67
2023/07/25 06:43:09;;;;;;;;;;;19.70;98.20;;;;;;5106368;28;19969;-64
2023/07/25 06:45:35;;;;;;;;;;;19.10;98.90;;;;;;5107706;28;19988;-67
2023/07/25 06:48:02;;;;;;;;;;;18.70;99.80;;;;;;5111075;28;20413;-66
2023/07/25 06:50:32;;;;;;;;;;;18.40;99.90;;;;;;5096876;28;19912;-67
2023/07/25 06:52:59;;;;;;;;;;;18.10;99.90;;;;;;5105033;28;19961;-67
2023/07/25 06:55:26;;;;;;;;;;;17.80;99.90;;;;;;5100880;28;19924;-67
2023/07/25 06:57:52;;;;;;;;;;;17.60;99.90;;;;;;5093062;28;19912;-66
2023/07/25 07:00:19;;;;;;;;;;;17.40;99.90;;;;;;5093370;28;20035;-64
2023/07/25 07:02:45;;;;;;;;;;;17.20;99.90;;;;;;5108758;28;19919;-65
2023/07/25 07:05:12;;;;;;;;;;;17.00;99.90;;;;;;5104863;28;19911;-64
2023/07/25 07:07:42;;;;;;;;;;;16.80;99.90;;;;;;5111116;28;19915;-67
2023/07/25 07:10:08;;;;;;;;;;;16.70;99.90;;;;;;5108891;28;20339;-65
2023/07/25 07:12:35;;;;;;;;;;;16.50;99.90;;;;;;5098414;28;19912;-64
2023/07/25 07:15:01;;;;;;;;;;;16.30;99.90;;;;;;5102512;28;19927;-65
2023/07/25 07:17:28;;;;;;;;;;;16.20;99.90;;;;;;5110910;28;19926;-67
2023/07/25 07:19:58;;;;;;;;;;;16.10;99.90;;;;;;5111170;28;19908;-66
2023/07/25 07:22:25;;;;;;;;;;;16.00;99.90;;;;;;5108532;28;19987;-66
2023/07/25 07:24:52;;;;;;;;;;;15.90;99.90;;;;;;5095981;28;19912;-67
2023/07/25 07:27:19;;;;;;;;;;;15.80;99.90;;;;;;5109096;27;19915;-66
2023/07/25 07:29:46;;;;;;;;;;;15.80;99.90;;;;;;5115158;28;19910;-66
2023/07/25 07:32:13;;;;;;;;;;;15.70;99.90;;;;;;5113146;28;19951;-67
2023/07/25 07:34:39;;;;;;;;;;;15.60;99.90;;;;;;5113101;28;20456;-65
2023/07/25 07:37:06;;;;;;;;;;;15.60;99.90;;;;;;5114896;27;19911;-66
2023/07/25 07:39:32;;;;;;;;;;;15.50;99.90;;;;;;5114120;28;19935;-66
2023/07/25 07:41:59;;;;;;;;;;;15.50;99.90;;;;;;5111774;27;19916;-65
2023/07/25 07:44:26;;;;;;;;;;;15.40;99.90;;;;;;5112170;28;20001;-66
2023/07/25 07:46:52;;;;;;;;;;;15.30;99.90;;;;;;5113821;28;20400;-67
2023/07/25 07:49:19;;;;;;;;;;;15.20;99.90;;;;;;5114552;28;19940;-67
2023/07/25 07:51:46;;;;;;;;;;;15.10;99.90;;;;;;5114224;28;19965;-66
2023/07/25 07:54:12;;;;;;;;;;;15.10;99.90;;;;;;5111748;28;20372;-67
2023/07/25 07:56:39;;;;;;;;;;;15.00;99.90;;;;;;5114621;27;20257;-66
2023/07/25 07:59:06;;;;;;;;;;;14.90;99.90;;;;;;5113798;28;19942;-67
2023/07/25 08:01:33;;;;;;;;;;;14.90;99.90;;;;;;5111527;28;19916;-66
2023/07/25 08:03:59;;;;;;;;;;;14.90;99.90;;;;;;5105679;28;19915;-67
2023/07/25 08:06:28;;;;;;;;;;;14.80;99.90;;;;;;5119155;27;20383;-65
2023/07/25 08:08:54;;;;;;;;;;;14.70;99.90;;;;;;5134525;27;20014;-66
2023/07/25 08:11:21;;;;;;;;;;;14.70;99.90;;;;;;5102886;28;19911;-67
2023/07/25 08:13:47;;;;;;;;;;;14.70;99.90;;;;;;5114832;28;19912;-67
2023/07/25 08:16:14;;;;;;;;;;;14.60;99.90;;;;;;5114945;28;19955;-64
2023/07/25 08:18:41;;;;;;;;;;;14.50;99.90;;;;;;5114407;28;20401;-63
2023/07/25 08:21:07;;;;;;;;;;;14.50;99.90;;;;;;5108423;28;19912;-64
2023/07/25 08:23:34;;;;;;;;;;;14.40;99.90;;;;;;5113513;28;19916;-65
2023/07/25 08:26:00;;;;;;;;;;;14.40;99.90;;;;;;5114394;28;19908;-65
2023/07/25 08:28:27;;;;;;;;;;;14.30;99.90;;;;;;5096497;27;19935;-67
2023/07/25 08:31:01;;;;;;;;;;;14.30;99.90;;;;;;5090618;28;19916;-66
2023/07/25 08:33:29;;;;;;;;;;;14.20;99.90;;;;;;5112078;27;20364;-65
2023/07/25 08:35:55;;;;;;;;;;;14.20;99.90;;;;;;5110883;28;19912;-65
2023/07/25 08:38:22;;;;;;;;;;;14.10;99.90;;;;;;5113234;28;19908;-65
2023/07/25 08:40:54;;;;;;;;;;;14.20;99.90;;;;;;5114608;28;19915;-66
2023/07/25 08:43:22;;;;;;;;;;;14.10;99.90;;;;;;5108842;28;19920;-63
2023/07/25 08:45:49;;;;;;;;;;;14.00;99.90;;;;;;5114574;28;19927;-65
2023/07/25 08:48:16;;;;;;;;;;;14.00;99.90;;;;;;5113806;28;19931;-65
2023/07/25 08:50:46;;;;;;;;;;;14.00;99.90;;;;;;5111311;28;19933;-63
2023/07/25 08:53:14;;;;;;;;;;;13.90;99.90;;;;;;5114195;28;20330;-65
2023/07/25 08:55:41;;;;;;;;;;;13.90;99.90;;;;;;5081001;28;19986;-67
2023/07/25 08:58:08;;;;;;;;;;;13.80;99.90;;;;;;5103421;28;20372;-65
2023/07/25 09:00:34;;;;;;;;;;;13.80;99.90;;;;;;5111912;28;19926;-64
2023/07/25 09:03:01;;;;;;;;;;;13.80;99.90;;;;;;5113476;28;19912;-63
2023/07/25 09:05:28;;;;;;;;;;;13.80;99.90;;;;;;5113555;28;19999;-64
2023/07/25 09:07:58;;;;;;;;;;;13.80;99.90;;;;;;5112534;28;19912;-63
2023/07/25 09:10:29;;;;;;;;;;;13.70;99.90;;;;;;5113351;28;19908;-64
2023/07/25 09:12:55;;;;;;;;;;;13.70;99.90;;;;;;5112826;28;19912;-67
2023/07/25 09:15:23;;;;;;;;;;;13.60;99.90;;;;;;5109620;28;20386;-64
2023/07/25 09:17:52;;;;;;;;;;;13.50;99.90;;;;;;5113088;28;20333;-67
2023/07/25 09:20:19;;;;;;;;;;;13.60;99.90;;;;;;5110509;28;20330;-66
2023/07/25 09:22:50;;;;;;;;;;;13.50;99.90;;;;;;5110735;28;19911;-65
2023/07/25 09:25:16;;;;;;;;;;;13.40;99.90;;;;;;5112712;28;19912;-64
2023/07/25 09:27:46;;;;;;;;;;;13.40;99.90;;;;;;5111333;28;19915;-63
2023/07/25 09:30:14;;;;;;;;;;;13.40;99.90;;;;;;5112692;28;20391;-65
2023/07/25 09:32:47;;;;;;;;;;;13.40;99.90;;;;;;5108485;28;19916;-66
2023/07/25 09:35:13;;;;;;;;;;;13.40;99.90;;;;;;5110515;28;20344;-66
2023/07/25 09:37:40;;;;;;;;;;;13.40;99.90;;;;;;5110142;28;19908;-65
2023/07/25 09:40:10;;;;;;;;;;;13.30;99.90;;;;;;5111549;28;19911;-67
2023/07/25 09:42:41;;;;;;;;;;;13.30;99.90;;;;;;5104203;28;19981;-66
2023/07/25 09:45:12;;;;;;;;;;;13.20;99.90;;;;;;5107857;28;19961;-65
2023/07/25 09:47:38;;;;;;;;;;;13.20;99.90;;;;;;5108301;28;19915;-65
2023/07/25 09:50:05;;;;;;;;;;;13.20;99.90;;;;;;5104799;28;19908;-67
2023/07/25 09:52:39;;;;;;;;;;;13.20;99.90;;;;;;5112119;28;20282;-65
2023/07/25 09:55:06;;;;;;;;;;;13.20;99.90;;;;;;5113705;28;20411;-67
2023/07/25 09:57:34;;;;;;;;;;;13.10;99.90;;;;;;5113080;28;19961;-68
2023/07/25 10:00:02;;;;;;;;;;;13.00;99.90;;;;;;5112754;28;19908;-66
2023/07/25 10:02:29;;;;;;;;;;;13.10;99.90;;;;;;5103156;28;19912;-65
2023/07/25 10:04:56;;;;;;;;;;;13.00;99.90;;;;;;5092764;28;19939;-65
2023/07/25 10:07:25;;;;;;;;;;;13.00;99.90;;;;;;5095590;28;19908;-68
2023/07/25 10:09:53;;;;;;;;;;;12.90;99.90;;;;;;5112628;28;19937;-65
2023/07/25 10:12:19;;;;;;;;;;;12.90;99.90;;;;;;5113043;28;19915;-65
2023/07/25 10:14:46;;;;;;;;;;;12.90;99.90;;;;;;5112751;28;19919;-65
2023/07/25 10:17:13;;;;;;;;;;;12.90;99.90;;;;;;5096517;28;19908;-65
2023/07/25 10:19:47;;;;;;;;;;;12.90;99.90;;;;;;5108044;28;19912;-66
2023/07/25 10:22:14;;;;;;;;;;;12.80;99.90;;;;;;5102381;28;19969;-66
2023/07/25 10:24:40;;;;;;;;;;;12.80;99.90;;;;;;5091686;28;19916;-66
2023/07/25 10:27:11;;;;;;;;;;;12.80;99.90;;;;;;5092362;28;20369;-69
2023/07/25 10:29:39;;;;;;;;;;;12.70;99.90;;;;;;5104733;28;20345;-67
2023/07/25 10:32:06;;;;;;;;;;;12.70;99.90;;;;;;5112285;28;19912;-66
2023/07/25 10:34:51;;;;;;;;;;;12.70;99.90;;;;;;5112017;28;20367;-66
2023/07/25 10:37:24;;;;;;;;;;;12.70;99.90;;;;;;5112161;28;19950;-65
2023/07/25 10:40:09;;;;;;;;;;;12.80;99.90;;;;;;5112219;28;19977;-67
2023/07/25 10:42:49;;;;;;;;;;;12.70;99.90;;;;;;5112493;28;19923;-66
2023/07/25 10:45:42;;;;;;;;;;;12.60;99.90;;;;;;5111685;28;19926;-68
2023/07/25 10:48:26;;;;;;;;;;;12.60;99.90;;;;;;5091374;28;19912;-65
2023/07/25 10:50:55;;;;;;;;;;;12.60;99.90;;;;;;5092163;28;20314;-66
2023/07/25 10:53:24;;;;;;;;;;;12.50;99.90;;;;;;5103715;28;19914;-65
2023/07/25 10:56:07;;;;;;;;;;;12.50;99.90;;;;;;5112048;28;19973;-65
2023/07/25 10:58:35;;;;;;;;;;;12.40;99.90;;;;;;5114058;28;20319;-65
2023/07/25 11:01:02;;;;;;;;;;;12.40;99.90;;;;;;5118799;28;19911;-64
2023/07/25 11:03:29;;;;;;;;;;;12.30;99.90;;;;;;5118289;28;19965;-66
2023/07/25 11:06:08;;;;;;;;;;;12.30;99.90;;;;;;5106466;28;20371;-67
2023/07/25 11:08:35;;;;;;;;;;;12.30;99.90;;;;;;5118196;28;19920;-65
2023/07/25 11:11:03;;;;;;;;;;;12.20;99.90;;;;;;5116631;28;20408;-64
2023/07/25 11:13:36;;;;;;;;;;;12.10;99.90;;;;;;5109930;28;19927;-64
2023/07/25 11:16:03;;;;;;;;;;;12.10;99.90;;;;;;5111710;28;20003;-65
2023/07/25 11:18:33;;;;;;;;;;;12.10;99.90;;;;;;5116011;28;19919;-64
2023/07/25 11:21:00;;;;;;;;;;;12.10;99.90;;;;;;5118163;28;20271;-63
2023/07/25 11:23:26;;;;;;;;;;;12.00;99.90;;;;;;5118300;28;20314;-64
2023/07/25 11:25:57;;;;;;;;;;;12.00;99.90;;;;;;5116798;28;20015;-66
2023/07/25 11:28:24;;;;;;;;;;;11.90;99.90;;;;;;5118212;28;19919;-65
2023/07/25 11:30:54;;;;;;;;;;;11.90;99.90;;;;;;5098929;28;20528;-67
2023/07/25 11:33:21;;;;;;;;;;;11.90;99.90;;;;;;5099084;28;19915;-65
2023/07/25 11:35:54;;;;;;;;;;;11.90;99.90;;;;;;5109849;28;19946;-65
2023/07/25 11:38:21;;;;;;;;;;;11.80;99.90;;;;;;5118049;28;19962;-65
2023/07/25 11:40:51;;;;;;;;;;;11.80;99.90;;;;;;5100230;28;19912;-64
2023/07/25 11:43:18;;;;;;;;;;;11.70;99.90;;;;;;5101814;28;19924;-66
2023/07/25 11:45:45;;;;;;;;;;;11.60;99.90;;;;;;5098655;28;19916;-66
2023/07/25 11:48:12;;;;;;;;;;;11.60;99.90;;;;;;5098303;28;19909;-64
2023/07/25 11:50:42;;;;;;;;;;;11.60;99.90;;;;;;5097589;28;19986;-66
2023/07/25 11:53:09;;;;;;;;;;;11.60;99.90;;;;;;5098304;28;19915;-66
2023/07/25 11:55:36;;;;;;;;;;;11.60;99.90;;;;;;5080479;28;19963;-64
2023/07/25 11:58:03;;;;;;;;;;;11.60;99.90;;;;;;5106961;28;20368;-66
2023/07/25 12:00:39;;;;;;;;;;;11.60;99.90;;;;;;5117186;28;19939;-64
2023/07/25 12:03:17;;;;;;;;;;;11.60;99.90;;;;;;5117099;28;19976;-65
2023/07/25 12:05:50;;;;;;;;;;;11.60;99.90;;;;;;5116178;28;20000;-65
2023/07/25 12:08:29;;;;;;;;;;;11.50;99.90;;;;;;5098432;28;19998;-65
2023/07/25 12:10:56;;;;;;;;;;;11.40;99.90;;;;;;5094919;28;19973;-66
2023/07/25 12:13:22;;;;;;;;;;;11.40;99.90;;;;;;5096450;28;19948;-64
2023/07/25 12:15:54;;;;;;;;;;;11.40;99.90;;;;;;5095487;28;20006;-65
2023/07/25 12:18:27;;;;;;;;;;;11.40;99.90;;;;;;5095365;28;19913;-68
2023/07/25 12:20:57;;;;;;;;;;;11.30;99.90;;;;;;5095264;28;19908;-65
2023/07/25 12:23:31;;;;;;;;;;;11.30;99.90;;;;;;5095259;28;19908;-65
2023/07/25 12:26:00;;;;;;;;;;;11.30;99.90;;;;;;5095427;28;20004;-65
2023/07/25 12:28:38;;;;;;;;;;;11.30;99.90;;;;;;5102411;28;19943;-66
2023/07/25 12:31:05;;;;;;;;;;;11.30;99.90;;;;;;5115632;28;20332;-65
2023/07/25 12:33:31;;;;;;;;;;;11.20;99.90;;;;;;5103284;28;20377;-65
2023/07/25 12:35:58;;;;;;;;;;;11.20;99.90;;;;;;5113822;28;20023;-66
2023/07/25 12:38:24;;;;;;;;;;;11.20;99.90;;;;;;5115484;28;19911;-66
2023/07/25 12:40:51;;;;;;;;;;;11.20;99.90;;;;;;5115603;28;19968;-64
2023/07/25 12:43:18;;;;;;;;;;;11.10;99.90;;;;;;5115527;28;19996;-65
2023/07/25 12:45:45;;;;;;;;;;;11.00;99.90;;;;;;5115339;28;19914;-65
2023/07/25 12:48:11;;;;;;;;;;;11.00;99.90;;;;;;5115545;28;19996;-65
2023/07/25 12:50:39;;;;;;;;;;;11.00;99.90;;;;;;5114457;28;19919;-66
2023/07/25 12:53:06;;;;;;;;;;;11.00;99.90;;;;;;5094554;28;20357;-66
2023/07/25 12:55:33;;;;;;;;;;;11.00;99.90;;;;;;5109632;28;19915;-65
2023/07/25 12:58:00;;;;;;;;;;;11.00;99.90;;;;;;5095030;28;19915;-65
2023/07/25 13:00:26;;;;;;;;;;;11.00;99.90;;;;;;5106410;28;19935;-65
2023/07/25 13:02:53;;;;;;;;;;;11.00;99.90;;;;;;5106183;28;19979;-65
2023/07/25 13:05:20;;;;;;;;;;;11.00;99.90;;;;;;5114944;28;19908;-65
2023/07/25 13:07:46;;;;;;;;;;;11.10;99.90;;;;;;5115154;28;20363;-66
2023/07/25 13:10:13;;;;;;;;;;;11.00;99.90;;;;;;5114833;28;19914;-65
2023/07/25 13:12:39;;;;;;;;;;;11.00;99.90;;;;;;5114890;28;19957;-64
2023/07/25 13:15:07;;;;;;;;;;;11.00;99.90;;;;;;5114242;28;19923;-65
2023/07/25 13:17:34;;;;;;;;;;;10.90;99.90;;;;;;5114827;28;19912;-65
2023/07/25 13:20:01;;;;;;;;;;;10.90;99.90;;;;;;5114986;28;19915;-65
2023/07/25 13:22:28;;;;;;;;;;;10.90;99.90;;;;;;5114286;28;19955;-65
2023/07/25 13:24:56;;;;;;;;;;;10.90;99.90;;;;;;5114696;28;19907;-64
2023/07/25 13:27:27;;;;;;;;;;;10.90;99.90;;;;;;5114638;28;19907;-63
2023/07/25 13:29:54;;;;;;;;;;;10.90;99.90;;;;;;5095262;28;19916;-66
2023/07/25 13:32:21;;;;;;;;;;;10.80;99.90;;;;;;5094455;28;19908;-65
2023/07/25 13:34:48;;;;;;;;;;;10.80;99.90;;;;;;5114366;28;20431;-65
2023/07/25 13:37:15;;;;;;;;;;;10.80;99.90;;;;;;5107026;28;19950;-64
2023/07/25 13:39:42;;;;;;;;;;;10.70;99.90;;;;;;5114353;28;19960;-65
2023/07/25 13:42:08;;;;;;;;;;;10.70;99.90;;;;;;5095645;28;20268;-65
2023/07/25 13:44:35;;;;;;;;;;;10.80;99.90;;;;;;5114223;28;20353;-64
2023/07/25 13:47:04;;;;;;;;;;;10.70;99.90;;;;;;5113735;28;19912;-65
2023/07/25 13:49:31;;;;;;;;;;;10.70;99.90;;;;;;5114135;28;20002;-65
2023/07/25 13:51:58;;;;;;;;;;;10.70;99.90;;;;;;5111527;28;20416;-64
2023/07/25 13:54:25;;;;;;;;;;;10.70;99.90;;;;;;5114064;28;19950;-66
2023/07/25 13:56:51;;;;;;;;;;;10.60;99.90;;;;;;5100973;28;19912;-63
2023/07/25 13:59:18;;;;;;;;;;;10.60;99.90;;;;;;5093420;28;19912;-65
2023/07/25 14:01:44;;;;;;;;;;;10.60;99.90;;;;;;5094595;28;20284;-65
2023/07/25 14:04:11;;;;;;;;;;;10.50;99.90;;;;;;5113827;28;19914;-65
2023/07/25 14:06:38;;;;;;;;;;;10.40;99.90;;;;;;5114105;28;19911;-65
2023/07/25 14:09:04;;;;;;;;;;;10.50;99.90;;;;;;5114001;28;19908;-67
2023/07/25 14:11:31;;;;;;;;;;;10.50;99.90;;;;;;5113610;28;19908;-66
2023/07/25 14:13:58;;;;;;;;;;;10.50;99.90;;;;;;5111473;28;20378;-66
2023/07/25 14:16:24;;;;;;;;;;;10.40;99.90;;;;;;5113579;28;20296;-65
2023/07/25 14:18:51;;;;;;;;;;;10.40;99.90;;;;;;5113661;28;19908;-66